createdAt,value
2022-10-19T00:01:40.034Z,35.20
2022-10-19T00:04:43.288Z,33.05
2022-10-19T00:07:46.662Z,33.47
2022-10-19T00:10:51.657Z,28.05
2022-10-19T00:13:56.317Z,24.90
2022-10-19T00:16:59.802Z,23.85
2022-10-19T00:20:03.382Z,24.73
2022-10-19T00:23:06.771Z,22.20
2022-10-19T00:26:12.238Z,24.40
2022-10-19T00:29:16.151Z,25.00
2022-10-19T00:32:19.461Z,24.30
2022-10-19T00:35:22.926Z,26.60
2022-10-19T00:38:26.498Z,26.73
2022-10-19T00:41:32.816Z,25.77
2022-10-19T00:44:59.714Z,25.48
2022-10-19T00:48:03.224Z,28.27
2022-10-19T00:51:06.497Z,25.45
2022-10-19T00:54:10.668Z,23.58
2022-10-19T00:57:16.162Z,25.25
2022-10-19T01:03:55.196Z,22.30
2022-10-19T01:07:00.018Z,21.65
2022-10-19T01:10:03.698Z,23.20
2022-10-19T01:13:25.368Z,20.98
2022-10-19T01:16:37.015Z,24.58
2022-10-19T01:20:00.644Z,22.70
2022-10-19T01:23:47.926Z,22.35
2022-10-19T01:27:16.351Z,24.92
2022-10-19T01:30:33.318Z,22.33
2022-10-19T01:33:46.891Z,23.13
2022-10-19T01:36:59.308Z,23.45
2022-10-19T01:40:09.344Z,21.02
2022-10-19T01:43:21.377Z,23.15
2022-10-19T01:46:31.433Z,24.60
2022-10-19T01:49:40.174Z,22.85
2022-10-19T01:52:44.608Z,22.10
2022-10-19T01:55:52.240Z,23.45
2022-10-19T01:58:59.138Z,23.95
2022-10-19T02:02:05.336Z,24.52
2022-10-19T02:05:09.922Z,22.83
2022-10-19T02:08:16.070Z,22.05
2022-10-19T02:11:20.669Z,20.17
2022-10-19T02:14:27.537Z,19.75
2022-10-19T02:17:36.742Z,22.80
2022-10-19T02:20:40.436Z,21.25
2022-10-19T02:23:43.748Z,25.80
2022-10-19T02:26:47.236Z,22.60
2022-10-19T02:29:51.010Z,24.60
2022-10-19T02:32:55.863Z,22.10
2022-10-19T02:36:00.974Z,24.30
2022-10-19T02:39:04.989Z,24.20
2022-10-19T02:42:12.287Z,21.63
2022-10-19T02:45:22.939Z,21.20
2022-10-19T02:48:30.833Z,21.75
2022-10-19T02:51:36.123Z,22.98
2022-10-19T02:54:40.541Z,20.83
2022-10-19T02:57:43.969Z,27.85
2022-10-19T03:00:47.198Z,23.27
2022-10-19T03:03:52.133Z,21.80
2022-10-19T03:06:55.311Z,23.42
2022-10-19T03:09:58.792Z,31.40
2022-10-19T03:13:01.981Z,29.85
2022-10-19T03:16:09.939Z,27.70
2022-10-19T03:19:14.874Z,21.73
2022-10-19T03:22:18.099Z,24.35
2022-10-19T03:25:21.513Z,23.95
2022-10-19T03:28:24.729Z,28.00
2022-10-19T03:31:28.136Z,28.00
2022-10-19T03:34:32.899Z,30.48
2022-10-19T03:37:36.452Z,28.30
2022-10-19T03:40:39.867Z,32.03
2022-10-19T03:43:43.283Z,31.25
2022-10-19T03:46:46.502Z,29.42
2022-10-19T03:49:51.535Z,31.23
2022-10-19T03:52:56.565Z,28.05
2022-10-19T03:56:04.926Z,31.25
2022-10-19T03:59:08.743Z,33.40
2022-10-19T04:02:11.914Z,33.13
2022-10-19T04:05:16.810Z,32.42
2022-10-19T04:08:20.280Z,32.75
2022-10-19T04:11:25.845Z,34.15
2022-10-19T04:14:33.322Z,31.05
2022-10-19T04:17:45.630Z,35.35
2022-10-19T04:20:57.807Z,32.05
2022-10-19T04:24:03.599Z,37.67
2022-10-19T04:27:07.092Z,39.88
2022-10-19T04:30:11.164Z,38.63
2022-10-19T04:33:14.515Z,45.45
2022-10-19T04:36:19.511Z,41.63
2022-10-19T04:39:22.769Z,38.58
2022-10-19T04:42:26.140Z,41.22
2022-10-19T04:45:29.477Z,35.10
2022-10-19T04:48:32.915Z,35.80
2022-10-19T04:51:37.621Z,41.80
2022-10-19T04:54:40.800Z,37.78
2022-10-19T04:57:54.439Z,40.40
2022-10-19T05:01:01.912Z,37.33
2022-10-19T05:04:08.804Z,38.03
2022-10-19T05:07:17.784Z,32.58
2022-10-19T05:10:27.417Z,30.98
2022-10-19T05:13:36.920Z,29.55
2022-10-19T05:16:45.029Z,32.58
2022-10-19T05:23:04.763Z,32.83
2022-10-19T05:26:12.977Z,29.23
2022-10-19T05:29:16.394Z,28.90
2022-10-19T05:32:25.331Z,28.20
2022-10-19T05:35:28.713Z,34.50
2022-10-19T05:38:33.563Z,28.48
2022-10-19T05:41:37.199Z,24.35
2022-10-19T05:44:40.496Z,35.22
2022-10-19T05:47:43.990Z,30.05
2022-10-19T05:50:54.426Z,26.02
2022-10-19T05:57:02.533Z,24.52
2022-10-19T06:00:06.773Z,26.02
2022-10-19T06:03:15.545Z,28.80
2022-10-19T06:06:18.920Z,28.38
2022-10-19T06:09:23.701Z,25.15
2022-10-19T06:12:27.125Z,25.95
2022-10-19T06:15:30.364Z,32.40
2022-10-19T06:18:33.634Z,24.67
2022-10-19T06:21:38.682Z,22.40
2022-10-19T06:24:45.479Z,25.80
2022-10-19T06:27:49.055Z,23.73
2022-10-19T06:30:52.538Z,27.38
2022-10-19T06:33:56.075Z,19.20
2022-10-19T06:36:59.552Z,28.65
2022-10-19T06:40:07.059Z,27.67
2022-10-19T06:43:10.746Z,20.77
2022-10-19T06:46:20.242Z,23.30
2022-10-19T06:49:23.497Z,26.00
2022-10-19T06:52:26.889Z,22.77
2022-10-19T06:55:31.739Z,27.35
2022-10-19T06:58:37.503Z,21.67
2022-10-19T07:01:40.791Z,16.20
2022-10-19T07:04:44.063Z,20.60
2022-10-19T07:07:47.463Z,33.55
2022-10-19T07:10:56.227Z,23.50
2022-10-19T07:13:59.578Z,18.98
2022-10-19T07:17:02.846Z,21.90
2022-10-19T07:20:07.293Z,16.75
2022-10-19T07:23:10.523Z,17.63
2022-10-19T07:26:16.756Z,22.40
2022-10-19T07:29:19.975Z,14.85
2022-10-19T07:32:23.161Z,14.75
2022-10-19T07:35:26.520Z,18.88
2022-10-19T07:38:31.491Z,15.93
2022-10-19T07:41:36.788Z,18.02
2022-10-19T07:44:39.994Z,15.52
2022-10-19T07:47:45.697Z,12.68
2022-10-19T07:50:49.590Z,16.45
2022-10-19T07:53:53.002Z,14.10
2022-10-19T07:56:57.843Z,14.05
2022-10-19T08:00:01.066Z,15.40
2022-10-19T08:03:57.160Z,12.55
2022-10-19T08:06:28.302Z,23.63
2022-10-19T08:09:51.943Z,10.85
2022-10-19T08:12:56.346Z,9.40
2022-10-19T08:15:59.546Z,12.65
2022-10-19T08:19:04.190Z,10.80
2022-10-19T08:22:07.414Z,14.85
2022-10-19T08:25:11.089Z,15.07
2022-10-19T08:28:15.764Z,12.63
2022-10-19T08:31:21.790Z,10.57
2022-10-19T08:34:25.373Z,12.00
2022-10-19T08:37:40.677Z,13.10
2022-10-19T08:40:48.516Z,14.73
2022-10-19T08:44:20.453Z,15.90
2022-10-19T08:47:35.858Z,12.57
2022-10-19T08:50:41.845Z,14.68
2022-10-19T08:53:53.798Z,15.63
2022-10-19T08:57:08.605Z,14.98
2022-10-19T09:00:21.783Z,14.85
2022-10-19T09:03:37.640Z,12.93
2022-10-19T09:07:00.807Z,11.95
2022-10-19T09:10:15.803Z,16.45
2022-10-19T09:13:36.458Z,13.82
2022-10-19T09:16:51.847Z,12.68
2022-10-19T09:19:55.178Z,20.08
2022-10-19T09:23:08.692Z,21.80
2022-10-19T09:26:18.260Z,18.35
2022-10-19T09:29:29.304Z,15.75
2022-10-19T09:32:36.676Z,11.63
2022-10-19T09:35:44.281Z,16.13
2022-10-19T09:38:49.211Z,10.80
2022-10-19T09:41:55.778Z,16.27
2022-10-19T09:45:02.095Z,14.95
2022-10-19T09:48:17.589Z,15.43
2022-10-19T09:51:22.227Z,17.75
2022-10-19T09:54:34.944Z,14.23
2022-10-19T09:57:44.249Z,15.35
2022-10-19T10:00:50.549Z,15.23
2022-10-19T10:04:06.642Z,11.35
2022-10-19T10:07:17.306Z,13.52
2022-10-19T10:10:28.070Z,13.38
2022-10-19T10:13:38.804Z,14.48
2022-10-19T10:16:42.190Z,16.33
2022-10-19T10:20:05.821Z,14.77
2022-10-19T10:23:24.763Z,9.13
2022-10-19T10:26:28.788Z,16.33
2022-10-19T10:29:33.956Z,11.82
2022-10-19T10:32:42.203Z,15.23
2022-10-19T10:35:53.838Z,11.30
2022-10-19T10:39:04.286Z,12.88
2022-10-19T10:42:12.470Z,9.32
2022-10-19T10:45:21.841Z,12.43
2022-10-19T10:48:29.774Z,7.97
2022-10-19T10:51:40.586Z,10.02
2022-10-19T10:55:00.172Z,11.98
2022-10-19T10:58:15.164Z,12.13
2022-10-19T11:01:23.087Z,10.13
2022-10-19T11:04:33.310Z,11.20
2022-10-19T11:07:42.825Z,9.02
2022-10-19T11:10:51.412Z,9.53
2022-10-19T11:13:59.914Z,8.88
2022-10-19T11:17:08.230Z,10.70
2022-10-19T11:20:17.292Z,6.75
2022-10-19T11:23:32.197Z,10.85
2022-10-19T11:26:59.329Z,9.20
2022-10-19T11:30:15.240Z,6.85
2022-10-19T11:33:28.932Z,10.30
2022-10-19T11:36:44.042Z,8.35
2022-10-19T11:40:00.270Z,9.80
2022-10-19T11:43:07.963Z,5.88
2022-10-19T11:46:19.198Z,4.22
2022-10-19T11:49:36.107Z,6.32
2022-10-19T11:52:48.474Z,8.40
2022-10-19T11:56:00.655Z,5.63
2022-10-19T11:59:15.073Z,7.15
2022-10-19T12:02:48.637Z,6.50
2022-10-19T12:06:11.865Z,7.45
2022-10-19T12:09:27.359Z,8.60
2022-10-19T12:12:35.299Z,6.85
2022-10-19T12:15:43.834Z,8.57
2022-10-19T12:18:50.158Z,8.30
2022-10-19T12:21:56.842Z,14.32
2022-10-19T12:25:02.401Z,14.65
2022-10-19T12:28:07.536Z,35.53
2022-10-19T12:35:56.670Z,8.05
2022-10-19T12:39:09.017Z,8.20
2022-10-19T12:42:21.480Z,4.22
2022-10-19T12:45:31.574Z,5.88
2022-10-19T12:48:36.388Z,5.20
2022-10-19T12:51:46.862Z,8.23
2022-10-19T12:54:50.285Z,5.60
2022-10-19T12:58:03.601Z,5.45
2022-10-19T13:01:10.225Z,5.65
2022-10-19T13:04:15.565Z,11.48
2022-10-19T13:07:19.984Z,9.98
2022-10-19T13:10:25.987Z,4.53
2022-10-19T13:14:01.625Z,5.90
2022-10-19T13:17:06.384Z,5.63
2022-10-19T13:20:46.894Z,6.32
2022-10-19T13:27:26.178Z,5.32
2022-10-19T13:31:06.968Z,3.85
2022-10-19T13:34:16.616Z,6.00
2022-10-19T13:37:20.617Z,4.75
2022-10-19T13:40:24.926Z,3.45
2022-10-19T13:43:31.505Z,4.50
2022-10-19T13:46:53.601Z,3.60
2022-10-19T13:50:31.939Z,9.23
2022-10-19T13:53:49.349Z,4.75
2022-10-19T13:57:15.747Z,8.25
2022-10-19T14:00:20.903Z,4.35
2022-10-19T14:03:37.372Z,5.43
2022-10-19T14:06:46.358Z,5.32
2022-10-19T14:10:13.367Z,4.45
2022-10-19T14:13:17.264Z,6.55
2022-10-19T14:16:23.862Z,5.57
2022-10-19T14:19:33.445Z,7.90
2022-10-19T14:22:42.217Z,8.90
2022-10-19T14:25:51.932Z,5.78
2022-10-19T14:29:01.529Z,5.55
2022-10-19T14:32:06.261Z,7.53
2022-10-19T14:35:28.668Z,6.30
2022-10-19T14:38:36.280Z,5.50
2022-10-19T14:41:39.772Z,5.72
2022-10-19T14:44:45.315Z,7.10
2022-10-19T14:48:00.347Z,5.07
2022-10-19T14:51:09.683Z,6.40
2022-10-19T14:54:24.184Z,6.75
2022-10-19T14:57:32.764Z,5.97
2022-10-19T15:00:36.323Z,5.93
2022-10-19T15:03:43.920Z,6.00
2022-10-19T15:06:47.444Z,27.67
2022-10-19T15:09:55.367Z,10.90
2022-10-19T15:13:02.781Z,12.70
2022-10-19T15:16:06.195Z,77.50
2022-10-19T15:19:19.222Z,19.98
2022-10-19T15:22:24.265Z,3.15
2022-10-19T15:25:35.374Z,4.05
2022-10-19T15:28:41.717Z,15.65
2022-10-19T15:31:45.206Z,12.05
2022-10-19T15:34:48.573Z,15.55
2022-10-19T15:37:52.368Z,30.20
2022-10-19T15:41:00.646Z,78.70
2022-10-19T15:44:05.326Z,12.50
2022-10-19T15:47:22.734Z,8.18
2022-10-19T15:50:35.586Z,33.22
2022-10-19T15:53:42.244Z,30.30
2022-10-19T15:56:51.897Z,11.32
2022-10-19T15:59:57.070Z,16.50
2022-10-19T16:03:00.906Z,46.45
2022-10-19T16:06:04.529Z,39.08
2022-10-19T16:09:16.942Z,29.55
2022-10-19T16:12:29.870Z,6.35
2022-10-19T16:15:37.891Z,7.93
2022-10-19T16:22:33.800Z,12.35
2022-10-19T16:25:55.324Z,35.95
2022-10-19T16:29:29.696Z,12.52
2022-10-19T16:32:46.121Z,7.63
2022-10-19T16:36:00.565Z,4.80
2022-10-19T16:39:16.987Z,7.28
2022-10-19T16:42:41.750Z,13.40
2022-10-19T16:45:50.681Z,21.27
2022-10-19T16:48:55.011Z,76.40
2022-10-19T16:52:04.864Z,113.18
2022-10-19T16:55:18.224Z,71.28
2022-10-19T16:58:22.613Z,24.73
2022-10-19T17:01:28.312Z,25.17
2022-10-19T17:04:32.433Z,33.35
2022-10-19T17:07:45.254Z,40.25
2022-10-19T17:10:49.606Z,19.45
2022-10-19T17:13:55.050Z,13.20
2022-10-19T17:16:59.839Z,20.15
2022-10-19T17:20:03.885Z,19.42
2022-10-19T17:23:07.531Z,14.07
2022-10-19T17:26:11.760Z,12.32
2022-10-19T17:29:15.777Z,8.77
2022-10-19T17:32:20.666Z,9.50
2022-10-19T17:35:23.965Z,12.30
2022-10-19T17:38:27.185Z,11.63
2022-10-19T17:41:31.406Z,8.32
2022-10-19T17:44:35.209Z,9.32
2022-10-19T17:47:40.107Z,7.82
2022-10-19T17:50:43.542Z,9.38
2022-10-19T17:53:48.700Z,10.20
2022-10-19T17:56:52.083Z,9.75
2022-10-19T17:59:55.538Z,8.70
2022-10-19T18:03:00.389Z,8.98
2022-10-19T18:06:09.736Z,9.63
2022-10-19T18:12:20.460Z,15.57
2022-10-19T18:15:24.068Z,13.60
2022-10-19T18:18:32.487Z,13.38
2022-10-19T18:21:38.508Z,14.98
2022-10-19T18:24:42.101Z,11.43
2022-10-19T18:27:45.460Z,11.65
2022-10-19T18:30:49.474Z,8.60
2022-10-19T18:34:01.877Z,6.10
2022-10-19T18:37:05.708Z,7.72
2022-10-19T18:40:12.056Z,8.88
2022-10-19T18:43:15.803Z,23.42
2022-10-19T18:46:20.622Z,28.48
2022-10-19T18:49:26.371Z,49.15
2022-10-19T18:52:29.914Z,34.35
2022-10-19T18:55:33.235Z,20.05
2022-10-19T18:58:36.900Z,20.27
2022-10-19T19:01:40.928Z,15.48
2022-10-19T19:04:45.678Z,9.82
2022-10-19T19:07:48.994Z,7.80
2022-10-19T19:10:52.332Z,9.95
2022-10-19T19:13:57.796Z,10.23
2022-10-19T19:17:01.138Z,14.52
2022-10-19T19:20:07.099Z,7.60
2022-10-19T19:23:10.500Z,11.20
2022-10-19T19:26:14.942Z,7.72
2022-10-19T19:29:19.022Z,22.15
2022-10-19T19:32:22.514Z,24.92
2022-10-19T19:35:27.407Z,10.13
2022-10-19T19:38:32.360Z,37.75
2022-10-19T19:41:35.982Z,15.40
2022-10-19T19:44:39.404Z,9.63
2022-10-19T19:47:42.957Z,7.30
2022-10-19T19:50:48.544Z,8.23
2022-10-19T19:53:52.077Z,5.85
2022-10-19T19:56:55.623Z,6.28
2022-10-19T19:59:59.399Z,6.97
2022-10-19T20:03:02.983Z,10.68
2022-10-19T20:06:08.440Z,9.45
2022-10-19T20:09:12.698Z,10.93
2022-10-19T20:12:16.302Z,9.02
2022-10-19T20:15:20.275Z,14.57
2022-10-19T20:18:23.646Z,22.25
2022-10-19T20:21:29.098Z,8.90
2022-10-19T20:24:34.228Z,9.35
2022-10-19T20:27:40.290Z,8.00
2022-10-19T20:30:44.532Z,10.07
2022-10-19T20:33:48.425Z,9.73
2022-10-19T20:36:53.526Z,12.27
2022-10-19T20:39:57.223Z,9.65
2022-10-19T20:43:00.670Z,9.10
2022-10-19T20:46:05.396Z,11.70
2022-10-19T20:49:08.909Z,12.82
2022-10-19T20:52:13.941Z,12.73
2022-10-19T20:55:20.117Z,12.27
2022-10-19T20:58:23.572Z,14.00
2022-10-19T21:01:29.924Z,13.13
2022-10-19T21:04:34.090Z,13.40
2022-10-19T21:07:39.094Z,12.27
2022-10-19T21:10:42.601Z,11.45
2022-10-19T21:13:47.099Z,15.40
2022-10-19T21:16:50.539Z,20.33
2022-10-19T21:19:57.228Z,11.55
2022-10-19T21:23:02.116Z,10.57
2022-10-19T21:26:05.693Z,10.70
2022-10-19T21:29:11.114Z,11.45
2022-10-19T21:32:14.702Z,11.43
2022-10-19T21:35:18.146Z,14.43
2022-10-19T21:38:22.929Z,16.10
2022-10-19T21:41:26.632Z,12.65
2022-10-19T21:44:30.070Z,21.00
2022-10-19T21:47:33.899Z,14.07
2022-10-19T21:50:37.506Z,14.20
2022-10-19T21:53:42.348Z,16.23
2022-10-19T21:56:46.363Z,13.85
2022-10-19T21:59:49.634Z,15.05
2022-10-19T22:02:53.054Z,17.40
2022-10-19T22:05:56.607Z,14.02
2022-10-19T22:09:01.370Z,15.30
2022-10-19T22:12:04.925Z,14.85
2022-10-19T22:15:09.124Z,14.18
2022-10-19T22:18:12.662Z,18.08
2022-10-19T22:21:23.125Z,17.08
2022-10-19T22:24:28.425Z,18.65
2022-10-19T22:27:31.759Z,15.23
2022-10-19T22:30:35.030Z,13.93
2022-10-19T22:33:38.315Z,16.70
2022-10-19T22:36:41.689Z,15.10
2022-10-19T22:39:46.280Z,18.10
2022-10-19T22:42:50.056Z,22.38
2022-10-19T22:45:53.375Z,23.35
2022-10-19T22:48:57.307Z,18.98
2022-10-19T22:52:00.837Z,24.85
2022-10-19T22:55:06.090Z,21.80
2022-10-19T22:58:12.946Z,22.48
2022-10-19T23:01:17.365Z,21.15
2022-10-19T23:04:21.200Z,20.65
2022-10-19T23:07:24.667Z,20.17
2022-10-19T23:10:29.352Z,22.38
2022-10-19T23:13:32.551Z,20.13
2022-10-19T23:16:35.767Z,21.30
2022-10-19T23:19:39.380Z,20.58
2022-10-19T23:22:42.552Z,19.95
2022-10-19T23:25:58.266Z,22.30
2022-10-19T23:29:01.653Z,25.48
2022-10-19T23:32:05.405Z,24.10
2022-10-19T23:35:09.865Z,21.67
2022-10-19T23:38:13.123Z,28.55
2022-10-19T23:41:18.891Z,25.70
2022-10-19T23:44:22.068Z,24.92
2022-10-19T23:47:25.388Z,22.80
2022-10-19T23:50:28.740Z,24.15
2022-10-19T23:53:39.898Z,26.10
2022-10-19T23:56:45.969Z,21.92
2022-10-19T23:59:49.177Z,23.95
